sensor_id;sensor_type;location;lat;lon;timestamp;temperature;humidity
4505;DHT22;2265;48.794;9.520;2023-06-26T00:00:31;20.30;98.00
4505;DHT22;2265;48.794;9.520;2023-06-26T00:02:59;20.30;98.00
4505;DHT22;2265;48.794;9.520;2023-06-26T00:05:27;20.30;98.00
4505;DHT22;2265;48.794;9.520;2023-06-26T00:07:56;20.30;98.00
4505;DHT22;2265;48.794;9.520;2023-06-26T00:10:27;20.50;98.00
4505;DHT22;2265;48.794;9.520;2023-06-26T00:12:56;20.30;98.00
4505;DHT22;2265;48.794;9.520;2023-06-26T00:15:23;20.10;98.00
4505;DHT22;2265;48.794;9.520;2023-06-26T00:17:50;20.10;98.00
4505;DHT22;2265;48.794;9.520;2023-06-26T00:20:19;19.90;98.00
4505;DHT22;2265;48.794;9.520;2023-06-26T00:22:46;19.90;98.00
4505;DHT22;2265;48.794;9.520;2023-06-26T00:25:16;19.70;98.00
4505;DHT22;2265;48.794;9.520;2023-06-26T00:27:44;19.60;98.00
4505;DHT22;2265;48.794;9.520;2023-06-26T00:30:12;19.50;98.00
4505;DHT22;2265;48.794;9.520;2023-06-26T00:32:39;19.40;98.00
4505;DHT22;2265;48.794;9.520;2023-06-26T00:35:06;19.30;98.00
4505;DHT22;2265;48.794;9.520;2023-06-26T00:37:33;19.20;98.00
4505;DHT22;2265;48.794;9.520;2023-06-26T00:40:01;19.20;98.00
4505;DHT22;2265;48.794;9.520;2023-06-26T00:42:30;19.30;98.00
4505;DHT22;2265;48.794;9.520;2023-06-26T00:44:59;19.20;98.00
4505;DHT22;2265;48.794;9.520;2023-06-26T00:47:26;19.10;98.00
4505;DHT22;2265;48.794;9.520;2023-06-26T00:49:54;19.00;98.00
4505;DHT22;2265;48.794;9.520;2023-06-26T00:52:23;18.80;98.00
4505;DHT22;2265;48.794;9.520;2023-06-26T00:54:52;18.90;98.00
4505;DHT22;2265;48.794;9.520;2023-06-26T00:57:19;19.10;98.00
4505;DHT22;2265;48.794;9.520;2023-06-26T00:59:46;19.10;98.00
4505;DHT22;2265;48.794;9.520;2023-06-26T01:02:16;19.10;98.00
4505;DHT22;2265;48.794;9.520;2023-06-26T01:04:46;19.10;98.00
4505;DHT22;2265;48.794;9.520;2023-06-26T01:07:16;18.90;98.00
4505;DHT22;2265;48.794;9.520;2023-06-26T01:09:46;18.80;98.00
4505;DHT22;2265;48.794;9.520;2023-06-26T01:12:14;18.70;98.00
4505;DHT22;2265;48.794;9.520;2023-06-26T01:14:41;18.90;98.00
4505;DHT22;2265;48.794;9.520;2023-06-26T01:17:09;18.90;98.00
4505;DHT22;2265;48.794;9.520;2023-06-26T01:19:43;18.70;98.00
4505;DHT22;2265;48.794;9.520;2023-06-26T01:22:18;18.70;98.00
4505;DHT22;2265;48.794;9.520;2023-06-26T01:24:56;18.70;98.00
4505;DHT22;2265;48.794;9.520;2023-06-26T01:27:31;18.60;98.00
4505;DHT22;2265;48.794;9.520;2023-06-26T01:30:01;18.60;98.00
4505;DHT22;2265;48.794;9.520;2023-06-26T01:32:30;18.60;98.00
4505;DHT22;2265;48.794;9.520;2023-06-26T01:34:58;18.70;98.00
4505;DHT22;2265;48.794;9.520;2023-06-26T01:37:25;18.60;98.00
4505;DHT22;2265;48.794;9.520;2023-06-26T01:39:54;18.40;98.00
4505;DHT22;2265;48.794;9.520;2023-06-26T01:42:21;18.40;98.00
4505;DHT22;2265;48.794;9.520;2023-06-26T01:44:50;18.40;98.00
4505;DHT22;2265;48.794;9.520;2023-06-26T01:47:21;18.40;98.00
4505;DHT22;2265;48.794;9.520;2023-06-26T01:49:54;18.40;98.00
4505;DHT22;2265;48.794;9.520;2023-06-26T01:52:25;18.40;98.00
4505;DHT22;2265;48.794;9.520;2023-06-26T01:55:07;18.30;98.00
4505;DHT22;2265;48.794;9.520;2023-06-26T01:57:36;18.10;98.00
4505;DHT22;2265;48.794;9.520;2023-06-26T02:00:06;18.20;98.00
4505;DHT22;2265;48.794;9.520;2023-06-26T02:02:36;18.20;98.00
4505;DHT22;2265;48.794;9.520;2023-06-26T02:05:03;18.10;98.00
4505;DHT22;2265;48.794;9.520;2023-06-26T02:07:30;18.10;98.00
4505;DHT22;2265;48.794;9.520;2023-06-26T02:09:57;18.20;98.00
4505;DHT22;2265;48.794;9.520;2023-06-26T02:12:24;18.20;98.00
4505;DHT22;2265;48.794;9.520;2023-06-26T02:14:51;18.10;98.00
4505;DHT22;2265;48.794;9.520;2023-06-26T02:17:20;18.00;98.00
4505;DHT22;2265;48.794;9.520;2023-06-26T02:19:47;18.00;98.00
4505;DHT22;2265;48.794;9.520;2023-06-26T02:22:16;18.00;98.00
4505;DHT22;2265;48.794;9.520;2023-06-26T02:24:46;18.20;98.00
4505;DHT22;2265;48.794;9.520;2023-06-26T02:27:14;18.20;98.00
4505;DHT22;2265;48.794;9.520;2023-06-26T02:29:41;18.00;98.00
4505;DHT22;2265;48.794;9.520;2023-06-26T02:32:08;17.80;98.00
4505;DHT22;2265;48.794;9.520;2023-06-26T02:34:38;17.90;98.00
4505;DHT22;2265;48.794;9.520;2023-06-26T02:37:05;17.90;98.00
4505;DHT22;2265;48.794;9.520;2023-06-26T02:39:33;17.80;98.00
4505;DHT22;2265;48.794;9.520;2023-06-26T02:42:00;17.80;98.00
4505;DHT22;2265;48.794;9.520;2023-06-26T02:44:27;17.80;98.00
4505;DHT22;2265;48.794;9.520;2023-06-26T02:46:56;17.70;98.00
4505;DHT22;2265;48.794;9.520;2023-06-26T02:49:23;17.90;98.00
4505;DHT22;2265;48.794;9.520;2023-06-26T02:51:52;17.80;98.00
4505;DHT22;2265;48.794;9.520;2023-06-26T02:54:19;17.80;98.00
4505;DHT22;2265;48.794;9.520;2023-06-26T02:56:47;17.70;98.00
4505;DHT22;2265;48.794;9.520;2023-06-26T02:59:14;17.70;98.00
4505;DHT22;2265;48.794;9.520;2023-06-26T03:01:42;17.80;98.00
4505;DHT22;2265;48.794;9.520;2023-06-26T03:04:10;17.60;98.00
4505;DHT22;2265;48.794;9.520;2023-06-26T03:06:37;17.50;98.00
4505;DHT22;2265;48.794;9.520;2023-06-26T03:09:06;17.60;98.00
4505;DHT22;2265;48.794;9.520;2023-06-26T03:11:33;17.60;98.00
4505;DHT22;2265;48.794;9.520;2023-06-26T03:14:00;17.40;98.00
4505;DHT22;2265;48.794;9.520;2023-06-26T03:16:27;17.50;98.00
4505;DHT22;2265;48.794;9.520;2023-06-26T03:18:55;17.40;98.00
4505;DHT22;2265;48.794;9.520;2023-06-26T03:21:23;17.30;98.00
4505;DHT22;2265;48.794;9.520;2023-06-26T03:23:52;17.30;98.00
4505;DHT22;2265;48.794;9.520;2023-06-26T03:26:20;17.30;98.00
4505;DHT22;2265;48.794;9.520;2023-06-26T03:28:54;17.20;98.00
4505;DHT22;2265;48.794;9.520;2023-06-26T03:31:21;17.20;98.00
4505;DHT22;2265;48.794;9.520;2023-06-26T03:33:48;17.20;98.00
4505;DHT22;2265;48.794;9.520;2023-06-26T03:36:15;17.00;98.00
4505;DHT22;2265;48.794;9.520;2023-06-26T03:38:42;17.10;98.00
4505;DHT22;2265;48.794;9.520;2023-06-26T03:41:09;17.10;98.00
4505;DHT22;2265;48.794;9.520;2023-06-26T03:43:38;17.10;98.00
4505;DHT22;2265;48.794;9.520;2023-06-26T03:46:05;17.20;98.00
4505;DHT22;2265;48.794;9.520;2023-06-26T03:48:32;17.20;98.00
4505;DHT22;2265;48.794;9.520;2023-06-26T03:50:59;17.20;98.00
4505;DHT22;2265;48.794;9.520;2023-06-26T03:53:27;17.30;98.00
4505;DHT22;2265;48.794;9.520;2023-06-26T03:55:54;17.30;98.00
4505;DHT22;2265;48.794;9.520;2023-06-26T03:58:22;17.30;98.00
4505;DHT22;2265;48.794;9.520;2023-06-26T04:00:50;17.30;98.00
4505;DHT22;2265;48.794;9.520;2023-06-26T04:03:17;17.30;98.00
4505;DHT22;2265;48.794;9.520;2023-06-26T04:05:45;17.30;98.00
4505;DHT22;2265;48.794;9.520;2023-06-26T04:08:12;17.30;98.00
4505;DHT22;2265;48.794;9.520;2023-06-26T04:10:39;17.40;98.00
4505;DHT22;2265;48.794;9.520;2023-06-26T04:13:06;17.50;98.00
4505;DHT22;2265;48.794;9.520;2023-06-26T04:15:33;17.60;98.00
4505;DHT22;2265;48.794;9.520;2023-06-26T04:18:01;17.60;98.00
4505;DHT22;2265;48.794;9.520;2023-06-26T04:20:28;17.70;98.00
4505;DHT22;2265;48.794;9.520;2023-06-26T04:22:56;17.60;98.00
4505;DHT22;2265;48.794;9.520;2023-06-26T04:25:23;17.60;98.00
4505;DHT22;2265;48.794;9.520;2023-06-26T04:27:54;17.60;98.00
4505;DHT22;2265;48.794;9.520;2023-06-26T04:30:22;17.70;98.00
4505;DHT22;2265;48.794;9.520;2023-06-26T04:32:49;17.80;98.00
4505;DHT22;2265;48.794;9.520;2023-06-26T04:35:17;17.80;98.00
4505;DHT22;2265;48.794;9.520;2023-06-26T04:37:45;17.90;98.00
4505;DHT22;2265;48.794;9.520;2023-06-26T04:40:12;18.10;98.00
4505;DHT22;2265;48.794;9.520;2023-06-26T04:42:39;18.20;98.00
4505;DHT22;2265;48.794;9.520;2023-06-26T04:45:07;18.20;98.00
4505;DHT22;2265;48.794;9.520;2023-06-26T04:47:34;18.30;98.00
4505;DHT22;2265;48.794;9.520;2023-06-26T04:50:01;18.30;98.00
4505;DHT22;2265;48.794;9.520;2023-06-26T04:52:30;18.20;98.00
4505;DHT22;2265;48.794;9.520;2023-06-26T04:54:57;18.20;98.00
4505;DHT22;2265;48.794;9.520;2023-06-26T04:57:24;18.20;98.00
4505;DHT22;2265;48.794;9.520;2023-06-26T04:59:52;18.20;98.00
4505;DHT22;2265;48.794;9.520;2023-06-26T05:02:19;18.20;98.00
4505;DHT22;2265;48.794;9.520;2023-06-26T05:04:46;18.30;98.00
4505;DHT22;2265;48.794;9.520;2023-06-26T05:07:14;18.50;98.00
4505;DHT22;2265;48.794;9.520;2023-06-26T05:09:42;18.50;98.00
4505;DHT22;2265;48.794;9.520;2023-06-26T05:12:10;18.60;98.00
4505;DHT22;2265;48.794;9.520;2023-06-26T05:14:38;18.70;98.00
4505;DHT22;2265;48.794;9.520;2023-06-26T05:17:05;18.70;98.00
4505;DHT22;2265;48.794;9.520;2023-06-26T05:19:32;18.70;98.00
4505;DHT22;2265;48.794;9.520;2023-06-26T05:22:01;18.80;98.00
4505;DHT22;2265;48.794;9.520;2023-06-26T05:24:30;18.80;98.00
4505;DHT22;2265;48.794;9.520;2023-06-26T05:26:59;18.90;98.00
4505;DHT22;2265;48.794;9.520;2023-06-26T05:29:27;19.00;98.00
4505;DHT22;2265;48.794;9.520;2023-06-26T05:31:56;19.10;98.00
4505;DHT22;2265;48.794;9.520;2023-06-26T05:34:24;19.30;98.00
4505;DHT22;2265;48.794;9.520;2023-06-26T05:36:57;19.40;98.00
4505;DHT22;2265;48.794;9.520;2023-06-26T05:39:25;19.50;98.00
4505;DHT22;2265;48.794;9.520;2023-06-26T05:41:52;19.80;98.00
4505;DHT22;2265;48.794;9.520;2023-06-26T05:44:21;19.80;98.00
4505;DHT22;2265;48.794;9.520;2023-06-26T05:46:48;19.90;98.00
4505;DHT22;2265;48.794;9.520;2023-06-26T05:49:15;20.10;98.00
4505;DHT22;2265;48.794;9.520;2023-06-26T05:51:43;20.10;98.00
4505;DHT22;2265;48.794;9.520;2023-06-26T05:54:11;20.20;98.00
4505;DHT22;2265;48.794;9.520;2023-06-26T05:56:39;20.20;98.00
4505;DHT22;2265;48.794;9.520;2023-06-26T05:59:07;20.30;98.00
4505;DHT22;2265;48.794;9.520;2023-06-26T06:01:36;20.40;98.00
4505;DHT22;2265;48.794;9.520;2023-06-26T06:04:03;20.50;98.00
4505;DHT22;2265;48.794;9.520;2023-06-26T06:06:30;20.60;98.00
4505;DHT22;2265;48.794;9.520;2023-06-26T06:08:57;20.70;98.00
4505;DHT22;2265;48.794;9.520;2023-06-26T06:11:24;20.90;98.00
4505;DHT22;2265;48.794;9.520;2023-06-26T06:13:53;21.00;98.00
4505;DHT22;2265;48.794;9.520;2023-06-26T06:16:20;21.00;98.00
4505;DHT22;2265;48.794;9.520;2023-06-26T06:18:49;21.20;98.00
4505;DHT22;2265;48.794;9.520;2023-06-26T06:21:16;21.30;98.00
4505;DHT22;2265;48.794;9.520;2023-06-26T06:23:43;21.40;98.00
4505;DHT22;2265;48.794;9.520;2023-06-26T06:26:10;21.70;98.00
4505;DHT22;2265;48.794;9.520;2023-06-26T06:28:41;22.00;98.00
4505;DHT22;2265;48.794;9.520;2023-06-26T06:31:08;22.30;98.00
4505;DHT22;2265;48.794;9.520;2023-06-26T06:33:35;22.50;98.00
4505;DHT22;2265;48.794;9.520;2023-06-26T06:36:04;22.70;98.00
4505;DHT22;2265;48.794;9.520;2023-06-26T06:38:31;22.90;98.00
4505;DHT22;2265;48.794;9.520;2023-06-26T06:40:58;23.10;97.60
4505;DHT22;2265;48.794;9.520;2023-06-26T06:43:25;23.40;97.20
4505;DHT22;2265;48.794;9.520;2023-06-26T06:45:52;23.40;96.70
4505;DHT22;2265;48.794;9.520;2023-06-26T06:48:19;23.60;96.70
4505;DHT22;2265;48.794;9.520;2023-06-26T06:50:47;23.80;96.00
4505;DHT22;2265;48.794;9.520;2023-06-26T06:53:15;23.90;95.70
4505;DHT22;2265;48.794;9.520;2023-06-26T06:55:42;24.00;95.30
4505;DHT22;2265;48.794;9.520;2023-06-26T06:58:09;24.10;95.30
4505;DHT22;2265;48.794;9.520;2023-06-26T07:00:36;24.10;95.20
4505;DHT22;2265;48.794;9.520;2023-06-26T07:03:03;24.20;94.70
4505;DHT22;2265;48.794;9.520;2023-06-26T07:05:30;24.40;94.50
4505;DHT22;2265;48.794;9.520;2023-06-26T07:07:57;24.60;93.80
4505;DHT22;2265;48.794;9.520;2023-06-26T07:10:26;24.60;93.30
4505;DHT22;2265;48.794;9.520;2023-06-26T07:12:54;24.70;93.80
4505;DHT22;2265;48.794;9.520;2023-06-26T07:15:21;24.80;92.90
4505;DHT22;2265;48.794;9.520;2023-06-26T07:17:48;24.90;92.60
4505;DHT22;2265;48.794;9.520;2023-06-26T07:20:15;24.90;92.60
4505;DHT22;2265;48.794;9.520;2023-06-26T07:22:45;25.00;92.60
4505;DHT22;2265;48.794;9.520;2023-06-26T07:25:12;25.00;92.50
4505;DHT22;2265;48.794;9.520;2023-06-26T07:27:41;25.10;92.60
4505;DHT22;2265;48.794;9.520;2023-06-26T07:30:10;25.20;92.90
4505;DHT22;2265;48.794;9.520;2023-06-26T07:32:37;25.30;92.30
4505;DHT22;2265;48.794;9.520;2023-06-26T07:35:06;25.50;92.30
4505;DHT22;2265;48.794;9.520;2023-06-26T07:37:34;25.70;91.00
4505;DHT22;2265;48.794;9.520;2023-06-26T07:40:01;25.80;91.00
4505;DHT22;2265;48.794;9.520;2023-06-26T07:42:28;25.90;91.00
4505;DHT22;2265;48.794;9.520;2023-06-26T07:44:57;26.00;89.60
4505;DHT22;2265;48.794;9.520;2023-06-26T07:47:24;26.20;89.90
4505;DHT22;2265;48.794;9.520;2023-06-26T07:49:51;26.20;88.30
4505;DHT22;2265;48.794;9.520;2023-06-26T07:52:19;26.30;88.80
4505;DHT22;2265;48.794;9.520;2023-06-26T07:54:46;26.50;88.40
4505;DHT22;2265;48.794;9.520;2023-06-26T07:57:13;26.60;88.00
4505;DHT22;2265;48.794;9.520;2023-06-26T07:59:40;26.60;87.90
4505;DHT22;2265;48.794;9.520;2023-06-26T08:02:08;26.80;88.20
4505;DHT22;2265;48.794;9.520;2023-06-26T08:04:35;27.00;87.80
4505;DHT22;2265;48.794;9.520;2023-06-26T08:07:04;27.10;87.00
4505;DHT22;2265;48.794;9.520;2023-06-26T08:09:31;27.20;87.00
4505;DHT22;2265;48.794;9.520;2023-06-26T08:11:59;27.30;86.70
4505;DHT22;2265;48.794;9.520;2023-06-26T08:14:26;27.40;86.20
4505;DHT22;2265;48.794;9.520;2023-06-26T08:16:54;27.50;85.80
4505;DHT22;2265;48.794;9.520;2023-06-26T08:19:22;27.60;85.50
4505;DHT22;2265;48.794;9.520;2023-06-26T08:21:49;27.80;85.60
4505;DHT22;2265;48.794;9.520;2023-06-26T08:24:17;28.00;84.70
4505;DHT22;2265;48.794;9.520;2023-06-26T08:26:47;28.10;83.70
4505;DHT22;2265;48.794;9.520;2023-06-26T08:29:15;28.30;83.10
4505;DHT22;2265;48.794;9.520;2023-06-26T08:31:42;28.30;83.30
4505;DHT22;2265;48.794;9.520;2023-06-26T08:34:09;28.40;83.10
4505;DHT22;2265;48.794;9.520;2023-06-26T08:36:38;28.50;82.50
4505;DHT22;2265;48.794;9.520;2023-06-26T08:39:06;28.50;82.40
4505;DHT22;2265;48.794;9.520;2023-06-26T08:41:34;28.60;83.10
4505;DHT22;2265;48.794;9.520;2023-06-26T08:44:01;28.80;82.70
4505;DHT22;2265;48.794;9.520;2023-06-26T08:46:30;28.90;81.20
4505;DHT22;2265;48.794;9.520;2023-06-26T08:49:01;29.10;81.00
4505;DHT22;2265;48.794;9.520;2023-06-26T08:51:34;29.10;80.90
4505;DHT22;2265;48.794;9.520;2023-06-26T08:54:09;29.20;80.60
4505;DHT22;2265;48.794;9.520;2023-06-26T08:56:41;29.30;80.50
4505;DHT22;2265;48.794;9.520;2023-06-26T08:59:10;29.50;80.50
4505;DHT22;2265;48.794;9.520;2023-06-26T09:01:38;29.50;79.10
4505;DHT22;2265;48.794;9.520;2023-06-26T09:04:05;29.60;79.60
4505;DHT22;2265;48.794;9.520;2023-06-26T09:06:33;29.60;79.80
4505;DHT22;2265;48.794;9.520;2023-06-26T09:09:02;29.70;79.50
4505;DHT22;2265;48.794;9.520;2023-06-26T09:11:31;29.70;78.60
4505;DHT22;2265;48.794;9.520;2023-06-26T09:13:59;29.70;80.10
4505;DHT22;2265;48.794;9.520;2023-06-26T09:16:26;29.70;79.60
4505;DHT22;2265;48.794;9.520;2023-06-26T09:18:53;29.80;78.80
4505;DHT22;2265;48.794;9.520;2023-06-26T09:21:29;29.90;78.50
4505;DHT22;2265;48.794;9.520;2023-06-26T09:23:57;30.10;78.90
4505;DHT22;2265;48.794;9.520;2023-06-26T09:26:25;30.20;78.10
4505;DHT22;2265;48.794;9.520;2023-06-26T09:28:53;30.30;77.40
4505;DHT22;2265;48.794;9.520;2023-06-26T09:31:21;30.10;77.40
4505;DHT22;2265;48.794;9.520;2023-06-26T09:33:48;30.20;77.60
4505;DHT22;2265;48.794;9.520;2023-06-26T09:36:19;30.40;77.70
4505;DHT22;2265;48.794;9.520;2023-06-26T09:38:47;30.60;77.90
4505;DHT22;2265;48.794;9.520;2023-06-26T09:41:17;30.80;76.10
4505;DHT22;2265;48.794;9.520;2023-06-26T09:43:48;30.80;75.90
4505;DHT22;2265;48.794;9.520;2023-06-26T09:46:24;30.80;75.80
4505;DHT22;2265;48.794;9.520;2023-06-26T09:48:58;30.80;75.70
4505;DHT22;2265;48.794;9.520;2023-06-26T09:51:25;30.90;75.70
4505;DHT22;2265;48.794;9.520;2023-06-26T09:53:53;31.00;75.00
4505;DHT22;2265;48.794;9.520;2023-06-26T09:56:20;31.20;75.60
4505;DHT22;2265;48.794;9.520;2023-06-26T09:58:47;31.40;74.70
4505;DHT22;2265;48.794;9.520;2023-06-26T10:01:16;31.50;75.40
4505;DHT22;2265;48.794;9.520;2023-06-26T10:03:43;31.60;74.40
4505;DHT22;2265;48.794;9.520;2023-06-26T10:06:11;31.60;74.60
4505;DHT22;2265;48.794;9.520;2023-06-26T10:08:40;31.60;73.70
4505;DHT22;2265;48.794;9.520;2023-06-26T10:11:11;31.70;74.00
4505;DHT22;2265;48.794;9.520;2023-06-26T10:13:43;31.80;73.60
4505;DHT22;2265;48.794;9.520;2023-06-26T10:16:13;32.10;74.50
4505;DHT22;2265;48.794;9.520;2023-06-26T10:18:44;32.30;73.00
4505;DHT22;2265;48.794;9.520;2023-06-26T10:21:12;32.50;72.70
4505;DHT22;2265;48.794;9.520;2023-06-26T10:23:41;32.60;72.70
4505;DHT22;2265;48.794;9.520;2023-06-26T10:26:11;32.70;72.80
4505;DHT22;2265;48.794;9.520;2023-06-26T10:28:41;32.80;72.60
4505;DHT22;2265;48.794;9.520;2023-06-26T10:31:10;33.00;72.60
4505;DHT22;2265;48.794;9.520;2023-06-26T10:33:38;33.10;72.50
4505;DHT22;2265;48.794;9.520;2023-06-26T10:36:17;33.30;72.00
4505;DHT22;2265;48.794;9.520;2023-06-26T10:38:53;33.40;71.40
4505;DHT22;2265;48.794;9.520;2023-06-26T10:41:22;33.50;71.20
4505;DHT22;2265;48.794;9.520;2023-06-26T10:43:50;33.40;70.90
4505;DHT22;2265;48.794;9.520;2023-06-26T10:46:18;33.20;71.50
4505;DHT22;2265;48.794;9.520;2023-06-26T10:48:58;33.30;72.00
4505;DHT22;2265;48.794;9.520;2023-06-26T10:51:28;33.40;71.10
4505;DHT22;2265;48.794;9.520;2023-06-26T10:53:57;33.30;71.10
4505;DHT22;2265;48.794;9.520;2023-06-26T10:56:43;33.20;71.20
4505;DHT22;2265;48.794;9.520;2023-06-26T10:59:17;33.00;71.20
4505;DHT22;2265;48.794;9.520;2023-06-26T11:01:45;32.70;72.90
4505;DHT22;2265;48.794;9.520;2023-06-26T11:04:13;33.00;72.90
4505;DHT22;2265;48.794;9.520;2023-06-26T11:06:45;33.10;72.40
4505;DHT22;2265;48.794;9.520;2023-06-26T11:09:16;33.10;72.90
4505;DHT22;2265;48.794;9.520;2023-06-26T11:11:58;33.20;73.50
4505;DHT22;2265;48.794;9.520;2023-06-26T11:14:27;33.20;73.20
4505;DHT22;2265;48.794;9.520;2023-06-26T11:16:57;33.20;72.70
4505;DHT22;2265;48.794;9.520;2023-06-26T11:19:26;33.00;73.30
4505;DHT22;2265;48.794;9.520;2023-06-26T11:22:01;32.50;73.90
4505;DHT22;2265;48.794;9.520;2023-06-26T11:24:30;31.90;74.90
4505;DHT22;2265;48.794;9.520;2023-06-26T11:27:04;31.60;75.30
4505;DHT22;2265;48.794;9.520;2023-06-26T11:29:32;31.30;76.40
4505;DHT22;2265;48.794;9.520;2023-06-26T11:32:02;31.20;76.90
4505;DHT22;2265;48.794;9.520;2023-06-26T11:34:31;31.30;77.30
4505;DHT22;2265;48.794;9.520;2023-06-26T11:37:00;31.60;75.30
4505;DHT22;2265;48.794;9.520;2023-06-26T11:39:29;32.20;75.40
4505;DHT22;2265;48.794;9.520;2023-06-26T11:41:57;32.70;74.70
4505;DHT22;2265;48.794;9.520;2023-06-26T11:44:24;33.00;73.10
4505;DHT22;2265;48.794;9.520;2023-06-26T11:46:56;33.30;73.20
4505;DHT22;2265;48.794;9.520;2023-06-26T11:49:24;33.50;72.40
4505;DHT22;2265;48.794;9.520;2023-06-26T11:51:52;33.70;72.70
4505;DHT22;2265;48.794;9.520;2023-06-26T11:54:27;33.70;72.30
4505;DHT22;2265;48.794;9.520;2023-06-26T11:57:01;33.70;72.70
4505;DHT22;2265;48.794;9.520;2023-06-26T11:59:36;33.90;72.40
4505;DHT22;2265;48.794;9.520;2023-06-26T12:02:06;33.80;73.40
4505;DHT22;2265;48.794;9.520;2023-06-26T12:04:36;33.70;73.00
4505;DHT22;2265;48.794;9.520;2023-06-26T12:07:04;33.50;74.00
4505;DHT22;2265;48.794;9.520;2023-06-26T12:09:38;33.60;74.30
4505;DHT22;2265;48.794;9.520;2023-06-26T12:12:08;33.80;73.90
4505;DHT22;2265;48.794;9.520;2023-06-26T12:14:35;34.00;74.10
4505;DHT22;2265;48.794;9.520;2023-06-26T12:17:13;34.10;73.80
4505;DHT22;2265;48.794;9.520;2023-06-26T12:19:43;34.20;73.80
4505;DHT22;2265;48.794;9.520;2023-06-26T12:22:11;34.00;74.20
4505;DHT22;2265;48.794;9.520;2023-06-26T12:24:39;33.70;74.40
4505;DHT22;2265;48.794;9.520;2023-06-26T12:27:10;33.60;75.70
4505;DHT22;2265;48.794;9.520;2023-06-26T12:29:39;33.90;74.80
4505;DHT22;2265;48.794;9.520;2023-06-26T12:32:09;34.30;75.00
4505;DHT22;2265;48.794;9.520;2023-06-26T12:34:38;34.50;74.10
4505;DHT22;2265;48.794;9.520;2023-06-26T12:37:07;34.70;73.70
4505;DHT22;2265;48.794;9.520;2023-06-26T12:39:59;34.80;73.70
4505;DHT22;2265;48.794;9.520;2023-06-26T12:42:33;34.70;73.70
4505;DHT22;2265;48.794;9.520;2023-06-26T12:45:10;34.40;74.20
4505;DHT22;2265;48.794;9.520;2023-06-26T12:47:39;34.20;74.80
4505;DHT22;2265;48.794;9.520;2023-06-26T12:50:07;34.30;75.30
4505;DHT22;2265;48.794;9.520;2023-06-26T12:52:36;34.40;74.90
4505;DHT22;2265;48.794;9.520;2023-06-26T12:55:05;34.20;74.70
4505;DHT22;2265;48.794;9.520;2023-06-26T12:57:32;34.10;75.40
4505;DHT22;2265;48.794;9.520;2023-06-26T13:00:00;34.10;75.40
4505;DHT22;2265;48.794;9.520;2023-06-26T13:02:27;34.00;76.00
4505;DHT22;2265;48.794;9.520;2023-06-26T13:04:54;34.20;75.90
4505;DHT22;2265;48.794;9.520;2023-06-26T13:07:21;34.30;75.10
4505;DHT22;2265;48.794;9.520;2023-06-26T13:09:51;34.20;75.00
4505;DHT22;2265;48.794;9.520;2023-06-26T13:12:19;33.80;75.60
4505;DHT22;2265;48.794;9.520;2023-06-26T13:14:47;33.70;76.20
4505;DHT22;2265;48.794;9.520;2023-06-26T13:17:14;33.70;75.70
4505;DHT22;2265;48.794;9.520;2023-06-26T13:19:41;33.70;76.60
4505;DHT22;2265;48.794;9.520;2023-06-26T13:22:09;33.80;76.10
4505;DHT22;2265;48.794;9.520;2023-06-26T13:24:36;34.00;75.90
4505;DHT22;2265;48.794;9.520;2023-06-26T13:27:03;34.20;75.40
4505;DHT22;2265;48.794;9.520;2023-06-26T13:29:32;34.10;75.50
4505;DHT22;2265;48.794;9.520;2023-06-26T13:32:04;33.90;76.20
4505;DHT22;2265;48.794;9.520;2023-06-26T13:34:31;34.00;76.20
4505;DHT22;2265;48.794;9.520;2023-06-26T13:36:59;34.10;75.60
4505;DHT22;2265;48.794;9.520;2023-06-26T13:39:26;34.00;75.80
4505;DHT22;2265;48.794;9.520;2023-06-26T13:41:53;33.90;75.20
4505;DHT22;2265;48.794;9.520;2023-06-26T13:44:20;33.40;75.80
4505;DHT22;2265;48.794;9.520;2023-06-26T13:46:48;33.50;75.90
4505;DHT22;2265;48.794;9.520;2023-06-26T13:49:16;33.50;75.30
4505;DHT22;2265;48.794;9.520;2023-06-26T13:51:43;33.50;75.50
4505;DHT22;2265;48.794;9.520;2023-06-26T13:54:12;33.60;75.20
4505;DHT22;2265;48.794;9.520;2023-06-26T13:56:40;34.00;75.40
4505;DHT22;2265;48.794;9.520;2023-06-26T13:59:07;34.20;73.40
4505;DHT22;2265;48.794;9.520;2023-06-26T14:01:35;34.10;73.00
4505;DHT22;2265;48.794;9.520;2023-06-26T14:04:04;34.00;72.70
4505;DHT22;2265;48.794;9.520;2023-06-26T14:06:31;34.00;73.30
4505;DHT22;2265;48.794;9.520;2023-06-26T14:09:00;34.10;72.90
4505;DHT22;2265;48.794;9.520;2023-06-26T14:11:27;34.00;72.50
4505;DHT22;2265;48.794;9.520;2023-06-26T14:13:55;34.00;72.80
4505;DHT22;2265;48.794;9.520;2023-06-26T14:16:22;34.00;72.10
4505;DHT22;2265;48.794;9.520;2023-06-26T14:18:51;33.80;72.60
4505;DHT22;2265;48.794;9.520;2023-06-26T14:21:20;33.60;72.10
4505;DHT22;2265;48.794;9.520;2023-06-26T14:23:47;33.70;72.10
4505;DHT22;2265;48.794;9.520;2023-06-26T14:26:14;33.60;71.70
4505;DHT22;2265;48.794;9.520;2023-06-26T14:28:41;33.60;71.50
4505;DHT22;2265;48.794;9.520;2023-06-26T14:31:09;33.60;70.80
4505;DHT22;2265;48.794;9.520;2023-06-26T14:33:36;33.50;70.40
4505;DHT22;2265;48.794;9.520;2023-06-26T14:36:03;33.30;70.20
4505;DHT22;2265;48.794;9.520;2023-06-26T14:38:31;33.40;70.50
4505;DHT22;2265;48.794;9.520;2023-06-26T14:40:58;33.60;70.20
4505;DHT22;2265;48.794;9.520;2023-06-26T14:43:25;33.80;70.10
4505;DHT22;2265;48.794;9.520;2023-06-26T14:45:52;34.10;69.60
4505;DHT22;2265;48.794;9.520;2023-06-26T14:48:20;34.20;69.20
4505;DHT22;2265;48.794;9.520;2023-06-26T14:50:47;34.10;69.50
4505;DHT22;2265;48.794;9.520;2023-06-26T14:53:14;34.00;69.30
4505;DHT22;2265;48.794;9.520;2023-06-26T14:55:43;34.10;69.10
4505;DHT22;2265;48.794;9.520;2023-06-26T14:58:10;34.10;68.80
4505;DHT22;2265;48.794;9.520;2023-06-26T15:00:37;34.10;68.40
4505;DHT22;2265;48.794;9.520;2023-06-26T15:03:04;34.00;68.70
4505;DHT22;2265;48.794;9.520;2023-06-26T15:05:31;33.90;68.70
4505;DHT22;2265;48.794;9.520;2023-06-26T15:07:58;33.90;68.30
4505;DHT22;2265;48.794;9.520;2023-06-26T15:10:25;33.80;68.20
4505;DHT22;2265;48.794;9.520;2023-06-26T15:12:53;33.80;68.20
4505;DHT22;2265;48.794;9.520;2023-06-26T15:15:22;33.90;68.20
4505;DHT22;2265;48.794;9.520;2023-06-26T15:17:49;34.10;67.90
4505;DHT22;2265;48.794;9.520;2023-06-26T15:20:16;33.80;68.10
4505;DHT22;2265;48.794;9.520;2023-06-26T15:22:43;33.50;68.80
4505;DHT22;2265;48.794;9.520;2023-06-26T15:25:10;33.40;69.10
4505;DHT22;2265;48.794;9.520;2023-06-26T15:27:37;33.20;69.60
4505;DHT22;2265;48.794;9.520;2023-06-26T15:30:07;33.20;69.40
4505;DHT22;2265;48.794;9.520;2023-06-26T15:32:35;32.90;69.90
4505;DHT22;2265;48.794;9.520;2023-06-26T15:35:02;32.40;71.00
4505;DHT22;2265;48.794;9.520;2023-06-26T15:37:29;32.30;71.80
4505;DHT22;2265;48.794;9.520;2023-06-26T15:39:57;32.30;71.60
4505;DHT22;2265;48.794;9.520;2023-06-26T15:42:26;32.30;71.40
4505;DHT22;2265;48.794;9.520;2023-06-26T15:44:53;32.00;72.20
4505;DHT22;2265;48.794;9.520;2023-06-26T15:47:22;31.70;72.20
4505;DHT22;2265;48.794;9.520;2023-06-26T15:49:49;31.20;72.70
4505;DHT22;2265;48.794;9.520;2023-06-26T15:52:16;31.00;73.60
4505;DHT22;2265;48.794;9.520;2023-06-26T15:54:43;31.00;73.10
4505;DHT22;2265;48.794;9.520;2023-06-26T15:57:10;30.90;73.30
4505;DHT22;2265;48.794;9.520;2023-06-26T15:59:37;31.00;73.30
4505;DHT22;2265;48.794;9.520;2023-06-26T16:02:05;30.80;73.50
4505;DHT22;2265;48.794;9.520;2023-06-26T16:04:34;30.70;73.70
4505;DHT22;2265;48.794;9.520;2023-06-26T16:07:01;30.70;74.10
4505;DHT22;2265;48.794;9.520;2023-06-26T16:09:29;30.80;74.10